sensor_id;sensor_type;location;lat;lon;timestamp;P1;durP1;ratioP1;P2;durP2;ratioP2
8881;SDS011;4477;48.736;9.176;2023-07-13T00:01:03;3.73;;;1.63;;
8881;SDS011;4477;48.736;9.176;2023-07-13T00:03:31;2.37;;;1.47;;
8881;SDS011;4477;48.736;9.176;2023-07-13T00:06:00;3.40;;;1.53;;
8881;SDS011;4477;48.736;9.176;2023-07-13T00:08:30;3.23;;;1.50;;
8881;SDS011;4477;48.736;9.176;2023-07-13T00:10:58;3.47;;;1.40;;
8881;SDS011;4477;48.736;9.176;2023-07-13T00:13:25;2.93;;;1.50;;
8881;SDS011;4477;48.736;9.176;2023-07-13T00:15:52;3.10;;;1.53;;
8881;SDS011;4477;48.736;9.176;2023-07-13T00:18:19;2.53;;;1.50;;
8881;SDS011;4477;48.736;9.176;2023-07-13T00:20:46;1.87;;;1.57;;
8881;SDS011;4477;48.736;9.176;2023-07-13T00:23:14;4.20;;;1.60;;
8881;SDS011;4477;48.736;9.176;2023-07-13T00:25:43;2.07;;;1.30;;
8881;SDS011;4477;48.736;9.176;2023-07-13T00:28:10;4.73;;;1.80;;
8881;SDS011;4477;48.736;9.176;2023-07-13T00:30:37;3.40;;;1.70;;
8881;SDS011;4477;48.736;9.176;2023-07-13T00:33:04;4.50;;;1.63;;
8881;SDS011;4477;48.736;9.176;2023-07-13T00:35:30;3.57;;;1.40;;
8881;SDS011;4477;48.736;9.176;2023-07-13T00:37:58;3.13;;;1.43;;
8881;SDS011;4477;48.736;9.176;2023-07-13T00:40:25;4.50;;;1.70;;
8881;SDS011;4477;48.736;9.176;2023-07-13T00:42:53;2.80;;;1.40;;
8881;SDS011;4477;48.736;9.176;2023-07-13T00:48:28;3.50;;;1.47;;
8881;SDS011;4477;48.736;9.176;2023-07-13T00:51:00;2.83;;;1.27;;
8881;SDS011;4477;48.736;9.176;2023-07-13T00:53:28;3.47;;;1.70;;
8881;SDS011;4477;48.736;9.176;2023-07-13T00:55:57;2.97;;;1.67;;
8881;SDS011;4477;48.736;9.176;2023-07-13T00:58:25;5.13;;;1.87;;
8881;SDS011;4477;48.736;9.176;2023-07-13T01:00:54;3.20;;;1.50;;
8881;SDS011;4477;48.736;9.176;2023-07-13T01:03:21;3.40;;;1.43;;
8881;SDS011;4477;48.736;9.176;2023-07-13T01:05:48;3.10;;;1.47;;
8881;SDS011;4477;48.736;9.176;2023-07-13T01:08:16;3.00;;;1.40;;
8881;SDS011;4477;48.736;9.176;2023-07-13T01:10:50;2.67;;;1.40;;
8881;SDS011;4477;48.736;9.176;2023-07-13T01:13:17;3.77;;;1.60;;
8881;SDS011;4477;48.736;9.176;2023-07-13T01:15:47;2.77;;;1.40;;
8881;SDS011;4477;48.736;9.176;2023-07-13T01:18:16;2.80;;;1.50;;
8881;SDS011;4477;48.736;9.176;2023-07-13T01:20:49;3.30;;;1.50;;
8881;SDS011;4477;48.736;9.176;2023-07-13T01:23:20;4.80;;;1.70;;
8881;SDS011;4477;48.736;9.176;2023-07-13T01:25:47;2.43;;;1.70;;
8881;SDS011;4477;48.736;9.176;2023-07-13T01:28:13;2.20;;;1.40;;
8881;SDS011;4477;48.736;9.176;2023-07-13T01:30:42;4.87;;;1.80;;
8881;SDS011;4477;48.736;9.176;2023-07-13T01:33:10;3.07;;;1.30;;
8881;SDS011;4477;48.736;9.176;2023-07-13T01:35:39;4.07;;;1.97;;
8881;SDS011;4477;48.736;9.176;2023-07-13T01:38:07;2.90;;;1.87;;
8881;SDS011;4477;48.736;9.176;2023-07-13T01:40:35;3.27;;;1.40;;
8881;SDS011;4477;48.736;9.176;2023-07-13T01:43:03;2.67;;;1.70;;
8881;SDS011;4477;48.736;9.176;2023-07-13T01:45:30;2.10;;;1.40;;
8881;SDS011;4477;48.736;9.176;2023-07-13T01:47:57;3.40;;;1.87;;
8881;SDS011;4477;48.736;9.176;2023-07-13T01:50:24;4.20;;;1.70;;
8881;SDS011;4477;48.736;9.176;2023-07-13T01:52:51;4.20;;;1.80;;
8881;SDS011;4477;48.736;9.176;2023-07-13T01:55:20;2.20;;;1.73;;
8881;SDS011;4477;48.736;9.176;2023-07-13T01:57:47;3.97;;;1.87;;
8881;SDS011;4477;48.736;9.176;2023-07-13T02:00:14;5.07;;;1.90;;
8881;SDS011;4477;48.736;9.176;2023-07-13T02:02:41;2.93;;;1.90;;
8881;SDS011;4477;48.736;9.176;2023-07-13T02:05:09;4.07;;;1.80;;
8881;SDS011;4477;48.736;9.176;2023-07-13T02:07:36;2.63;;;1.90;;
8881;SDS011;4477;48.736;9.176;2023-07-13T02:10:04;4.83;;;1.87;;
8881;SDS011;4477;48.736;9.176;2023-07-13T02:12:33;5.07;;;1.90;;
8881;SDS011;4477;48.736;9.176;2023-07-13T02:15:00;5.10;;;2.20;;
8881;SDS011;4477;48.736;9.176;2023-07-13T02:17:27;3.93;;;1.83;;
8881;SDS011;4477;48.736;9.176;2023-07-13T02:19:54;3.73;;;2.10;;
8881;SDS011;4477;48.736;9.176;2023-07-13T02:22:21;3.27;;;2.10;;
8881;SDS011;4477;48.736;9.176;2023-07-13T02:24:48;2.83;;;2.30;;
8881;SDS011;4477;48.736;9.176;2023-07-13T02:27:16;4.20;;;2.17;;
8881;SDS011;4477;48.736;9.176;2023-07-13T02:29:44;2.80;;;2.23;;
8881;SDS011;4477;48.736;9.176;2023-07-13T02:32:11;3.53;;;2.00;;
8881;SDS011;4477;48.736;9.176;2023-07-13T02:34:38;4.60;;;2.63;;
8881;SDS011;4477;48.736;9.176;2023-07-13T02:37:06;3.13;;;2.40;;
8881;SDS011;4477;48.736;9.176;2023-07-13T02:39:33;6.03;;;2.63;;
8881;SDS011;4477;48.736;9.176;2023-07-13T02:42:00;4.57;;;2.50;;
8881;SDS011;4477;48.736;9.176;2023-07-13T02:44:27;3.20;;;2.53;;
8881;SDS011;4477;48.736;9.176;2023-07-13T02:46:55;4.70;;;2.50;;
8881;SDS011;4477;48.736;9.176;2023-07-13T02:49:21;3.97;;;2.30;;
8881;SDS011;4477;48.736;9.176;2023-07-13T02:51:48;3.97;;;2.77;;
8881;SDS011;4477;48.736;9.176;2023-07-13T02:54:17;4.33;;;2.30;;
8881;SDS011;4477;48.736;9.176;2023-07-13T02:56:44;3.33;;;2.50;;
8881;SDS011;4477;48.736;9.176;2023-07-13T02:59:11;4.70;;;2.90;;
8881;SDS011;4477;48.736;9.176;2023-07-13T03:01:37;3.73;;;2.37;;
8881;SDS011;4477;48.736;9.176;2023-07-13T03:04:07;4.27;;;2.47;;
8881;SDS011;4477;48.736;9.176;2023-07-13T03:06:33;4.03;;;2.60;;
8881;SDS011;4477;48.736;9.176;2023-07-13T03:09:01;5.20;;;2.70;;
8881;SDS011;4477;48.736;9.176;2023-07-13T03:11:28;3.90;;;2.70;;
8881;SDS011;4477;48.736;9.176;2023-07-13T03:13:56;5.23;;;2.60;;
8881;SDS011;4477;48.736;9.176;2023-07-13T03:16:24;4.30;;;2.67;;
8881;SDS011;4477;48.736;9.176;2023-07-13T03:18:50;3.73;;;2.77;;
8881;SDS011;4477;48.736;9.176;2023-07-13T03:21:18;4.10;;;2.27;;
8881;SDS011;4477;48.736;9.176;2023-07-13T03:23:45;4.43;;;2.60;;
8881;SDS011;4477;48.736;9.176;2023-07-13T03:26:14;4.93;;;2.43;;
8881;SDS011;4477;48.736;9.176;2023-07-13T03:28:43;4.87;;;2.60;;
8881;SDS011;4477;48.736;9.176;2023-07-13T03:31:11;4.77;;;2.50;;
8881;SDS011;4477;48.736;9.176;2023-07-13T03:33:40;5.03;;;2.67;;
8881;SDS011;4477;48.736;9.176;2023-07-13T03:36:09;4.07;;;2.73;;
8881;SDS011;4477;48.736;9.176;2023-07-13T03:38:42;6.70;;;2.20;;
8881;SDS011;4477;48.736;9.176;2023-07-13T03:41:09;3.47;;;1.97;;
8881;SDS011;4477;48.736;9.176;2023-07-13T03:43:36;5.83;;;2.20;;
8881;SDS011;4477;48.736;9.176;2023-07-13T03:46:02;2.40;;;1.93;;
8881;SDS011;4477;48.736;9.176;2023-07-13T03:48:29;3.77;;;2.30;;
8881;SDS011;4477;48.736;9.176;2023-07-13T03:50:56;3.60;;;1.93;;
8881;SDS011;4477;48.736;9.176;2023-07-13T03:53:23;3.43;;;2.30;;
8881;SDS011;4477;48.736;9.176;2023-07-13T03:55:51;4.70;;;2.40;;
8881;SDS011;4477;48.736;9.176;2023-07-13T03:58:28;4.37;;;2.40;;
8881;SDS011;4477;48.736;9.176;2023-07-13T04:00:57;2.73;;;2.30;;
8881;SDS011;4477;48.736;9.176;2023-07-13T04:03:24;3.90;;;2.40;;
8881;SDS011;4477;48.736;9.176;2023-07-13T04:05:52;3.90;;;2.10;;
8881;SDS011;4477;48.736;9.176;2023-07-13T04:08:19;3.10;;;2.03;;
8881;SDS011;4477;48.736;9.176;2023-07-13T04:10:46;5.27;;;2.07;;
8881;SDS011;4477;48.736;9.176;2023-07-13T04:13:14;4.67;;;2.40;;
8881;SDS011;4477;48.736;9.176;2023-07-13T04:15:41;3.83;;;1.97;;
8881;SDS011;4477;48.736;9.176;2023-07-13T04:18:08;3.47;;;2.10;;
8881;SDS011;4477;48.736;9.176;2023-07-13T04:20:35;4.93;;;2.23;;
8881;SDS011;4477;48.736;9.176;2023-07-13T04:23:02;3.97;;;2.03;;
8881;SDS011;4477;48.736;9.176;2023-07-13T04:25:28;4.23;;;1.70;;
8881;SDS011;4477;48.736;9.176;2023-07-13T04:27:55;3.93;;;2.53;;
8881;SDS011;4477;48.736;9.176;2023-07-13T04:30:23;4.00;;;1.93;;
8881;SDS011;4477;48.736;9.176;2023-07-13T04:32:51;3.17;;;2.03;;
8881;SDS011;4477;48.736;9.176;2023-07-13T04:35:18;2.17;;;1.90;;
8881;SDS011;4477;48.736;9.176;2023-07-13T04:37:46;4.63;;;1.93;;
8881;SDS011;4477;48.736;9.176;2023-07-13T04:40:15;3.27;;;1.70;;
8881;SDS011;4477;48.736;9.176;2023-07-13T04:42:42;2.70;;;1.90;;
8881;SDS011;4477;48.736;9.176;2023-07-13T04:45:09;4.57;;;2.13;;
8881;SDS011;4477;48.736;9.176;2023-07-13T04:47:38;4.03;;;1.93;;
8881;SDS011;4477;48.736;9.176;2023-07-13T04:50:05;3.83;;;2.00;;
8881;SDS011;4477;48.736;9.176;2023-07-13T04:52:33;3.43;;;2.10;;
8881;SDS011;4477;48.736;9.176;2023-07-13T04:55:00;3.60;;;2.07;;
8881;SDS011;4477;48.736;9.176;2023-07-13T04:57:27;5.43;;;2.20;;
8881;SDS011;4477;48.736;9.176;2023-07-13T04:59:54;2.30;;;1.80;;
8881;SDS011;4477;48.736;9.176;2023-07-13T05:02:21;2.20;;;1.67;;
8881;SDS011;4477;48.736;9.176;2023-07-13T05:04:49;3.23;;;1.80;;
8881;SDS011;4477;48.736;9.176;2023-07-13T05:07:16;3.43;;;2.20;;
8881;SDS011;4477;48.736;9.176;2023-07-13T05:09:43;3.17;;;2.20;;
8881;SDS011;4477;48.736;9.176;2023-07-13T05:12:10;8.90;;;2.53;;
8881;SDS011;4477;48.736;9.176;2023-07-13T05:14:36;5.37;;;1.87;;
8881;SDS011;4477;48.736;9.176;2023-07-13T05:17:04;2.13;;;1.50;;
8881;SDS011;4477;48.736;9.176;2023-07-13T05:19:30;3.50;;;1.70;;
8881;SDS011;4477;48.736;9.176;2023-07-13T05:21:59;2.80;;;1.70;;
8881;SDS011;4477;48.736;9.176;2023-07-13T05:24:27;2.33;;;1.47;;
8881;SDS011;4477;48.736;9.176;2023-07-13T05:26:55;8.63;;;1.90;;
8881;SDS011;4477;48.736;9.176;2023-07-13T05:29:22;3.17;;;1.50;;
8881;SDS011;4477;48.736;9.176;2023-07-13T05:31:49;6.30;;;2.00;;
8881;SDS011;4477;48.736;9.176;2023-07-13T05:34:16;3.17;;;1.60;;
8881;SDS011;4477;48.736;9.176;2023-07-13T05:36:44;1.70;;;1.37;;
8881;SDS011;4477;48.736;9.176;2023-07-13T05:39:12;4.50;;;1.63;;
8881;SDS011;4477;48.736;9.176;2023-07-13T05:41:39;4.00;;;1.80;;
8881;SDS011;4477;48.736;9.176;2023-07-13T05:44:07;2.70;;;1.60;;
8881;SDS011;4477;48.736;9.176;2023-07-13T05:46:34;4.03;;;1.87;;
8881;SDS011;4477;48.736;9.176;2023-07-13T05:49:01;6.03;;;1.73;;
8881;SDS011;4477;48.736;9.176;2023-07-13T05:51:28;3.23;;;1.70;;
8881;SDS011;4477;48.736;9.176;2023-07-13T05:53:55;4.77;;;1.80;;
8881;SDS011;4477;48.736;9.176;2023-07-13T05:56:24;4.33;;;1.80;;
8881;SDS011;4477;48.736;9.176;2023-07-13T05:58:51;3.27;;;1.60;;
8881;SDS011;4477;48.736;9.176;2023-07-13T06:01:18;3.87;;;1.80;;
8881;SDS011;4477;48.736;9.176;2023-07-13T06:03:47;2.90;;;1.63;;
8881;SDS011;4477;48.736;9.176;2023-07-13T06:06:15;3.27;;;1.70;;
8881;SDS011;4477;48.736;9.176;2023-07-13T06:08:42;4.60;;;1.97;;
8881;SDS011;4477;48.736;9.176;2023-07-13T06:11:10;2.70;;;1.60;;
8881;SDS011;4477;48.736;9.176;2023-07-13T06:13:40;4.67;;;1.77;;
8881;SDS011;4477;48.736;9.176;2023-07-13T06:16:07;10.27;;;5.10;;
8881;SDS011;4477;48.736;9.176;2023-07-13T06:18:34;9.57;;;4.50;;
8881;SDS011;4477;48.736;9.176;2023-07-13T06:21:05;6.40;;;4.53;;
8881;SDS011;4477;48.736;9.176;2023-07-13T06:23:33;6.13;;;3.10;;
8881;SDS011;4477;48.736;9.176;2023-07-13T06:26:00;6.20;;;2.50;;
8881;SDS011;4477;48.736;9.176;2023-07-13T06:28:28;5.40;;;2.10;;
8881;SDS011;4477;48.736;9.176;2023-07-13T06:30:56;4.40;;;1.92;;
8881;SDS011;4477;48.736;9.176;2023-07-13T06:33:23;2.60;;;1.88;;
8881;SDS011;4477;48.736;9.176;2023-07-13T06:35:50;2.78;;;1.67;;
8881;SDS011;4477;48.736;9.176;2023-07-13T06:38:18;2.63;;;1.30;;
8881;SDS011;4477;48.736;9.176;2023-07-13T06:40:45;3.05;;;1.60;;
8881;SDS011;4477;48.736;9.176;2023-07-13T06:43:11;3.35;;;1.52;;
8881;SDS011;4477;48.736;9.176;2023-07-13T06:48:08;2.45;;;1.38;;
8881;SDS011;4477;48.736;9.176;2023-07-13T06:50:35;3.90;;;1.70;;
8881;SDS011;4477;48.736;9.176;2023-07-13T06:53:02;2.40;;;1.50;;
8881;SDS011;4477;48.736;9.176;2023-07-13T06:55:29;4.28;;;1.45;;
8881;SDS011;4477;48.736;9.176;2023-07-13T06:57:56;3.97;;;1.50;;
8881;SDS011;4477;48.736;9.176;2023-07-13T07:00:23;3.63;;;1.63;;
8881;SDS011;4477;48.736;9.176;2023-07-13T07:02:50;1.73;;;1.23;;
8881;SDS011;4477;48.736;9.176;2023-07-13T07:05:18;2.65;;;1.20;;
8881;SDS011;4477;48.736;9.176;2023-07-13T07:07:46;2.08;;;1.00;;
8881;SDS011;4477;48.736;9.176;2023-07-13T07:10:13;3.20;;;1.40;;
8881;SDS011;4477;48.736;9.176;2023-07-13T07:12:40;3.55;;;1.20;;
8881;SDS011;4477;48.736;9.176;2023-07-13T07:15:07;2.88;;;1.27;;
8881;SDS011;4477;48.736;9.176;2023-07-13T07:17:35;3.20;;;1.25;;
8881;SDS011;4477;48.736;9.176;2023-07-13T07:20:02;2.25;;;1.00;;
8881;SDS011;4477;48.736;9.176;2023-07-13T07:22:31;2.88;;;1.10;;
8881;SDS011;4477;48.736;9.176;2023-07-13T07:24:58;4.53;;;1.30;;
8881;SDS011;4477;48.736;9.176;2023-07-13T07:27:25;3.55;;;1.15;;
8881;SDS011;4477;48.736;9.176;2023-07-13T07:29:52;3.00;;;1.10;;
8881;SDS011;4477;48.736;9.176;2023-07-13T07:32:19;1.20;;;0.80;;
8881;SDS011;4477;48.736;9.176;2023-07-13T07:34:46;2.10;;;1.00;;
8881;SDS011;4477;48.736;9.176;2023-07-13T07:37:13;2.75;;;1.20;;
8881;SDS011;4477;48.736;9.176;2023-07-13T07:39:42;4.03;;;1.60;;
8881;SDS011;4477;48.736;9.176;2023-07-13T07:42:09;3.17;;;1.20;;
8881;SDS011;4477;48.736;9.176;2023-07-13T07:44:37;2.15;;;1.00;;
8881;SDS011;4477;48.736;9.176;2023-07-13T07:47:04;2.85;;;1.10;;
8881;SDS011;4477;48.736;9.176;2023-07-13T07:49:31;2.22;;;0.88;;
8881;SDS011;4477;48.736;9.176;2023-07-13T07:51:58;1.88;;;1.20;;
8881;SDS011;4477;48.736;9.176;2023-07-13T07:54:25;4.38;;;1.30;;
8881;SDS011;4477;48.736;9.176;2023-07-13T07:56:53;1.48;;;1.10;;
8881;SDS011;4477;48.736;9.176;2023-07-13T07:59:20;2.42;;;1.00;;
8881;SDS011;4477;48.736;9.176;2023-07-13T08:01:47;2.47;;;1.10;;
8881;SDS011;4477;48.736;9.176;2023-07-13T08:04:15;1.83;;;1.02;;
8881;SDS011;4477;48.736;9.176;2023-07-13T08:06:42;3.00;;;1.10;;
8881;SDS011;4477;48.736;9.176;2023-07-13T08:09:09;5.57;;;1.25;;
8881;SDS011;4477;48.736;9.176;2023-07-13T08:11:36;3.20;;;1.30;;
8881;SDS011;4477;48.736;9.176;2023-07-13T08:14:04;1.70;;;0.90;;
8881;SDS011;4477;48.736;9.176;2023-07-13T08:16:30;2.00;;;0.98;;
8881;SDS011;4477;48.736;9.176;2023-07-13T08:18:58;2.58;;;1.10;;
8881;SDS011;4477;48.736;9.176;2023-07-13T08:21:26;2.90;;;1.15;;
8881;SDS011;4477;48.736;9.176;2023-07-13T08:23:53;2.40;;;0.90;;
8881;SDS011;4477;48.736;9.176;2023-07-13T08:26:20;2.88;;;1.05;;
8881;SDS011;4477;48.736;9.176;2023-07-13T08:28:47;3.25;;;1.20;;
8881;SDS011;4477;48.736;9.176;2023-07-13T08:31:15;3.00;;;1.30;;
8881;SDS011;4477;48.736;9.176;2023-07-13T08:33:42;1.80;;;1.10;;
8881;SDS011;4477;48.736;9.176;2023-07-13T08:36:08;3.35;;;1.15;;
8881;SDS011;4477;48.736;9.176;2023-07-13T08:38:35;2.78;;;1.30;;
8881;SDS011;4477;48.736;9.176;2023-07-13T08:41:09;4.93;;;1.08;;
8881;SDS011;4477;48.736;9.176;2023-07-13T08:43:38;3.20;;;1.20;;
8881;SDS011;4477;48.736;9.176;2023-07-13T08:46:08;6.03;;;1.33;;
8881;SDS011;4477;48.736;9.176;2023-07-13T08:48:41;3.10;;;1.30;;
8881;SDS011;4477;48.736;9.176;2023-07-13T08:51:14;2.28;;;0.98;;
8881;SDS011;4477;48.736;9.176;2023-07-13T08:53:54;2.13;;;1.08;;
8881;SDS011;4477;48.736;9.176;2023-07-13T08:56:24;4.60;;;1.30;;
8881;SDS011;4477;48.736;9.176;2023-07-13T08:58:55;3.58;;;1.17;;
8881;SDS011;4477;48.736;9.176;2023-07-13T09:01:24;3.20;;;1.15;;
8881;SDS011;4477;48.736;9.176;2023-07-13T09:03:59;6.35;;;1.40;;
8881;SDS011;4477;48.736;9.176;2023-07-13T09:06:32;1.92;;;1.00;;
8881;SDS011;4477;48.736;9.176;2023-07-13T09:09:19;3.25;;;1.27;;
8881;SDS011;4477;48.736;9.176;2023-07-13T09:11:59;2.70;;;1.20;;
8881;SDS011;4477;48.736;9.176;2023-07-13T09:14:37;2.90;;;1.10;;
8881;SDS011;4477;48.736;9.176;2023-07-13T09:17:11;3.67;;;1.30;;
8881;SDS011;4477;48.736;9.176;2023-07-13T09:19:43;3.63;;;1.30;;
8881;SDS011;4477;48.736;9.176;2023-07-13T09:22:14;4.53;;;1.30;;
8881;SDS011;4477;48.736;9.176;2023-07-13T09:24:49;3.15;;;1.30;;
8881;SDS011;4477;48.736;9.176;2023-07-13T09:27:21;3.97;;;1.48;;
8881;SDS011;4477;48.736;9.176;2023-07-13T09:29:50;3.60;;;1.20;;
8881;SDS011;4477;48.736;9.176;2023-07-13T09:32:33;4.18;;;1.40;;
8881;SDS011;4477;48.736;9.176;2023-07-13T09:35:05;5.18;;;1.35;;
8881;SDS011;4477;48.736;9.176;2023-07-13T09:37:37;4.90;;;1.40;;
8881;SDS011;4477;48.736;9.176;2023-07-13T09:40:08;3.88;;;1.13;;
8881;SDS011;4477;48.736;9.176;2023-07-13T09:42:41;2.17;;;1.15;;
8881;SDS011;4477;48.736;9.176;2023-07-13T09:45:08;4.10;;;1.35;;
8881;SDS011;4477;48.736;9.176;2023-07-13T09:47:38;4.93;;;1.58;;
8881;SDS011;4477;48.736;9.176;2023-07-13T09:50:10;2.97;;;1.30;;
8881;SDS011;4477;48.736;9.176;2023-07-13T09:52:43;4.00;;;1.60;;
8881;SDS011;4477;48.736;9.176;2023-07-13T09:57:56;3.10;;;1.00;;
8881;SDS011;4477;48.736;9.176;2023-07-13T10:00:25;3.17;;;1.10;;
8881;SDS011;4477;48.736;9.176;2023-07-13T10:03:01;3.60;;;1.38;;
8881;SDS011;4477;48.736;9.176;2023-07-13T10:05:38;4.18;;;1.40;;
8881;SDS011;4477;48.736;9.176;2023-07-13T10:08:09;2.28;;;1.38;;
8881;SDS011;4477;48.736;9.176;2023-07-13T10:10:43;3.08;;;1.23;;
8881;SDS011;4477;48.736;9.176;2023-07-13T10:13:21;2.85;;;1.27;;
8881;SDS011;4477;48.736;9.176;2023-07-13T10:15:56;3.22;;;1.20;;
8881;SDS011;4477;48.736;9.176;2023-07-13T10:18:25;2.15;;;1.13;;
8881;SDS011;4477;48.736;9.176;2023-07-13T10:20:55;2.55;;;1.17;;
8881;SDS011;4477;48.736;9.176;2023-07-13T10:23:35;2.47;;;1.25;;
8881;SDS011;4477;48.736;9.176;2023-07-13T10:26:04;4.30;;;1.23;;
8881;SDS011;4477;48.736;9.176;2023-07-13T10:28:36;4.43;;;1.52;;
8881;SDS011;4477;48.736;9.176;2023-07-13T10:31:07;2.97;;;1.00;;
8881;SDS011;4477;48.736;9.176;2023-07-13T10:33:40;4.38;;;1.42;;
8881;SDS011;4477;48.736;9.176;2023-07-13T10:36:12;5.32;;;1.20;;
8881;SDS011;4477;48.736;9.176;2023-07-13T10:38:43;1.55;;;1.08;;
8881;SDS011;4477;48.736;9.176;2023-07-13T10:41:12;1.85;;;1.30;;
8881;SDS011;4477;48.736;9.176;2023-07-13T10:43:43;2.45;;;1.20;;
8881;SDS011;4477;48.736;9.176;2023-07-13T10:46:15;4.22;;;1.55;;
8881;SDS011;4477;48.736;9.176;2023-07-13T10:48:45;3.67;;;1.38;;
8881;SDS011;4477;48.736;9.176;2023-07-13T10:51:17;2.08;;;1.00;;
8881;SDS011;4477;48.736;9.176;2023-07-13T10:53:47;3.20;;;1.33;;
8881;SDS011;4477;48.736;9.176;2023-07-13T10:56:34;3.03;;;1.20;;
8881;SDS011;4477;48.736;9.176;2023-07-13T10:59:02;1.55;;;1.20;;
8881;SDS011;4477;48.736;9.176;2023-07-13T11:01:39;2.63;;;1.20;;
8881;SDS011;4477;48.736;9.176;2023-07-13T11:04:13;3.25;;;1.60;;
8881;SDS011;4477;48.736;9.176;2023-07-13T11:06:42;1.80;;;1.30;;
8881;SDS011;4477;48.736;9.176;2023-07-13T11:12:01;4.78;;;1.45;;
8881;SDS011;4477;48.736;9.176;2023-07-13T11:14:35;4.80;;;1.38;;
8881;SDS011;4477;48.736;9.176;2023-07-13T11:20:19;4.68;;;1.38;;
8881;SDS011;4477;48.736;9.176;2023-07-13T11:22:50;3.30;;;1.10;;
8881;SDS011;4477;48.736;9.176;2023-07-13T11:25:25;10.50;;;1.40;;
8881;SDS011;4477;48.736;9.176;2023-07-13T11:28:04;3.40;;;1.35;;
8881;SDS011;4477;48.736;9.176;2023-07-13T11:30:40;4.90;;;1.30;;
8881;SDS011;4477;48.736;9.176;2023-07-13T11:33:13;3.05;;;1.05;;
8881;SDS011;4477;48.736;9.176;2023-07-13T11:35:49;3.63;;;1.10;;
8881;SDS011;4477;48.736;9.176;2023-07-13T11:38:22;3.15;;;1.23;;
8881;SDS011;4477;48.736;9.176;2023-07-13T11:40:53;4.18;;;1.33;;
8881;SDS011;4477;48.736;9.176;2023-07-13T11:43:22;4.97;;;1.30;;
8881;SDS011;4477;48.736;9.176;2023-07-13T11:45:49;2.38;;;1.10;;
8881;SDS011;4477;48.736;9.176;2023-07-13T11:48:20;2.10;;;1.10;;
8881;SDS011;4477;48.736;9.176;2023-07-13T11:50:49;5.70;;;1.20;;
8881;SDS011;4477;48.736;9.176;2023-07-13T11:53:20;3.38;;;1.20;;
8881;SDS011;4477;48.736;9.176;2023-07-13T11:55:48;2.53;;;1.10;;
8881;SDS011;4477;48.736;9.176;2023-07-13T11:58:17;2.22;;;1.27;;
8881;SDS011;4477;48.736;9.176;2023-07-13T12:00:48;2.95;;;1.50;;
8881;SDS011;4477;48.736;9.176;2023-07-13T12:03:17;2.00;;;0.90;;
8881;SDS011;4477;48.736;9.176;2023-07-13T12:05:56;3.08;;;1.40;;
8881;SDS011;4477;48.736;9.176;2023-07-13T12:08:26;2.42;;;1.40;;
8881;SDS011;4477;48.736;9.176;2023-07-13T12:10:58;3.72;;;1.38;;
8881;SDS011;4477;48.736;9.176;2023-07-13T12:13:27;3.08;;;1.40;;
8881;SDS011;4477;48.736;9.176;2023-07-13T12:15:55;3.45;;;1.30;;
8881;SDS011;4477;48.736;9.176;2023-07-13T12:18:23;2.28;;;1.23;;
8881;SDS011;4477;48.736;9.176;2023-07-13T12:20:57;4.85;;;1.20;;
8881;SDS011;4477;48.736;9.176;2023-07-13T12:23:28;4.78;;;1.58;;
8881;SDS011;4477;48.736;9.176;2023-07-13T12:25:58;4.97;;;1.40;;
8881;SDS011;4477;48.736;9.176;2023-07-13T12:28:32;1.92;;;1.08;;
8881;SDS011;4477;48.736;9.176;2023-07-13T12:31:01;6.75;;;1.60;;
8881;SDS011;4477;48.736;9.176;2023-07-13T12:33:29;3.88;;;1.50;;
8881;SDS011;4477;48.736;9.176;2023-07-13T12:35:57;4.13;;;1.40;;
8881;SDS011;4477;48.736;9.176;2023-07-13T12:38:29;3.17;;;1.42;;
8881;SDS011;4477;48.736;9.176;2023-07-13T12:40:57;6.25;;;1.38;;
8881;SDS011;4477;48.736;9.176;2023-07-13T12:43:24;3.03;;;1.30;;
8881;SDS011;4477;48.736;9.176;2023-07-13T12:45:57;2.92;;;1.30;;
8881;SDS011;4477;48.736;9.176;2023-07-13T12:48:25;3.55;;;1.50;;
8881;SDS011;4477;48.736;9.176;2023-07-13T12:50:54;3.72;;;1.58;;
8881;SDS011;4477;48.736;9.176;2023-07-13T12:53:23;3.45;;;1.50;;
8881;SDS011;4477;48.736;9.176;2023-07-13T12:55:58;1.85;;;1.20;;
8881;SDS011;4477;48.736;9.176;2023-07-13T12:58:29;2.78;;;1.10;;
8881;SDS011;4477;48.736;9.176;2023-07-13T13:01:01;3.25;;;1.52;;
8881;SDS011;4477;48.736;9.176;2023-07-13T13:03:31;5.32;;;1.38;;
8881;SDS011;4477;48.736;9.176;2023-07-13T13:06:00;2.20;;;1.10;;
8881;SDS011;4477;48.736;9.176;2023-07-13T13:08:29;3.22;;;1.42;;
8881;SDS011;4477;48.736;9.176;2023-07-13T13:10:58;3.40;;;1.17;;
8881;SDS011;4477;48.736;9.176;2023-07-13T13:13:25;3.35;;;1.25;;
8881;SDS011;4477;48.736;9.176;2023-07-13T13:15:52;5.72;;;1.35;;
8881;SDS011;4477;48.736;9.176;2023-07-13T13:18:19;2.45;;;1.20;;
8881;SDS011;4477;48.736;9.176;2023-07-13T13:20:50;1.63;;;1.20;;
8881;SDS011;4477;48.736;9.176;2023-07-13T13:23:18;2.75;;;1.40;;
8881;SDS011;4477;48.736;9.176;2023-07-13T13:25:50;2.92;;;1.30;;
8881;SDS011;4477;48.736;9.176;2023-07-13T13:28:19;2.47;;;1.35;;
8881;SDS011;4477;48.736;9.176;2023-07-13T13:30:48;5.20;;;1.40;;
8881;SDS011;4477;48.736;9.176;2023-07-13T13:33:17;2.97;;;1.42;;
8881;SDS011;4477;48.736;9.176;2023-07-13T13:35:45;4.15;;;1.35;;
8881;SDS011;4477;48.736;9.176;2023-07-13T13:38:13;4.22;;;1.40;;
8881;SDS011;4477;48.736;9.176;2023-07-13T13:40:41;1.88;;;1.40;;
8881;SDS011;4477;48.736;9.176;2023-07-13T13:43:13;5.45;;;1.40;;
8881;SDS011;4477;48.736;9.176;2023-07-13T13:45:44;2.05;;;1.20;;
8881;SDS011;4477;48.736;9.176;2023-07-13T13:48:15;3.30;;;1.42;;
8881;SDS011;4477;48.736;9.176;2023-07-13T13:50:44;2.70;;;1.38;;
8881;SDS011;4477;48.736;9.176;2023-07-13T13:53:11;5.97;;;1.40;;
8881;SDS011;4477;48.736;9.176;2023-07-13T13:55:39;2.92;;;1.42;;
8881;SDS011;4477;48.736;9.176;2023-07-13T13:58:07;4.28;;;1.50;;
8881;SDS011;4477;48.736;9.176;2023-07-13T14:00:34;2.35;;;1.30;;
8881;SDS011;4477;48.736;9.176;2023-07-13T14:03:03;3.40;;;1.20;;
8881;SDS011;4477;48.736;9.176;2023-07-13T14:05:32;3.15;;;1.23;;
8881;SDS011;4477;48.736;9.176;2023-07-13T14:07:59;2.42;;;1.30;;
8881;SDS011;4477;48.736;9.176;2023-07-13T14:10:25;2.15;;;1.25;;
8881;SDS011;4477;48.736;9.176;2023-07-13T14:12:54;8.13;;;1.63;;
8881;SDS011;4477;48.736;9.176;2023-07-13T14:15:23;2.22;;;1.27;;
8881;SDS011;4477;48.736;9.176;2023-07-13T14:17:52;4.07;;;1.40;;
8881;SDS011;4477;48.736;9.176;2023-07-13T14:20:21;3.70;;;1.33;;
8881;SDS011;4477;48.736;9.176;2023-07-13T14:22:49;2.40;;;1.38;;
8881;SDS011;4477;48.736;9.176;2023-07-13T14:25:18;4.00;;;1.45;;
8881;SDS011;4477;48.736;9.176;2023-07-13T14:27:46;3.83;;;1.35;;
8881;SDS011;4477;48.736;9.176;2023-07-13T14:30:16;4.43;;;1.42;;
8881;SDS011;4477;48.736;9.176;2023-07-13T14:32:45;3.45;;;1.55;;
8881;SDS011;4477;48.736;9.176;2023-07-13T14:35:14;2.72;;;1.10;;
8881;SDS011;4477;48.736;9.176;2023-07-13T14:37:43;4.53;;;1.45;;
8881;SDS011;4477;48.736;9.176;2023-07-13T14:40:12;3.15;;;1.58;;
8881;SDS011;4477;48.736;9.176;2023-07-13T14:42:40;2.50;;;1.45;;
8881;SDS011;4477;48.736;9.176;2023-07-13T14:45:12;3.08;;;1.20;;
8881;SDS011;4477;48.736;9.176;2023-07-13T14:47:39;4.18;;;1.40;;
8881;SDS011;4477;48.736;9.176;2023-07-13T14:50:11;3.67;;;1.52;;
8881;SDS011;4477;48.736;9.176;2023-07-13T14:52:41;2.95;;;1.27;;
8881;SDS011;4477;48.736;9.176;2023-07-13T14:55:10;2.92;;;1.30;;
8881;SDS011;4477;48.736;9.176;2023-07-13T14:57:38;1.88;;;1.00;;
8881;SDS011;4477;48.736;9.176;2023-07-13T15:00:12;3.70;;;1.27;;
8881;SDS011;4477;48.736;9.176;2023-07-13T15:02:41;4.97;;;1.20;;
8881;SDS011;4477;48.736;9.176;2023-07-13T15:05:13;1.83;;;1.15;;
8881;SDS011;4477;48.736;9.176;2023-07-13T15:07:40;3.72;;;1.10;;
8881;SDS011;4477;48.736;9.176;2023-07-13T15:10:13;3.92;;;1.50;;
8881;SDS011;4477;48.736;9.176;2023-07-13T15:12:41;2.00;;;1.05;;
8881;SDS011;4477;48.736;9.176;2023-07-13T15:15:10;4.18;;;1.40;;
8881;SDS011;4477;48.736;9.176;2023-07-13T15:17:38;3.33;;;1.20;;
8881;SDS011;4477;48.736;9.176;2023-07-13T15:20:13;2.33;;;1.23;;
8881;SDS011;4477;48.736;9.176;2023-07-13T15:22:44;2.28;;;1.30;;
8881;SDS011;4477;48.736;9.176;2023-07-13T15:25:14;3.45;;;1.27;;
8881;SDS011;4477;48.736;9.176;2023-07-13T15:27:43;3.90;;;1.58;;
8881;SDS011;4477;48.736;9.176;2023-07-13T15:30:10;9.35;;;1.30;;
8881;SDS011;4477;48.736;9.176;2023-07-13T15:32:39;3.65;;;1.33;;
8881;SDS011;4477;48.736;9.176;2023-07-13T15:35:09;2.53;;;1.17;;
8881;SDS011;4477;48.736;9.176;2023-07-13T15:37:40;4.72;;;1.50;;
8881;SDS011;4477;48.736;9.176;2023-07-13T15:40:10;3.58;;;1.50;;